• Join FlightAware (Why Join?)
  • Login
  • US Flag 
 
09:58PM EST


 

Airport Tracker/Info


-or-


 

Live Flight TrackerFlight Track Log ✈ N61GT ✈ 10-May-2013 ✈ KOSU - I69

Flight Track Log - Related Links

Times and Time Zones

All times are in EDT time to prevent confusion due to time zone crossing. See the N61GT flight status page for this flight to view local times or setup timezone preferences in your user account.

Time Position Orientation Groundspeed Altitude Reporting Facility
EDT Latitude Longitude Course Direction KTS MPH feet Rate Location/Type
07:27PM 40.0764 -83.0847 265° West 116 133 1,200  Level Indianapolis Center
07:27PM 40.0750 -83.1064 265° West 119 137 1,700 840 Climbing Indianapolis Center
07:28PM 40.0675 -83.1225 239° Southwest 99 114 2,200 960 Climbing Indianapolis Center
07:28PM 40.0542 -83.1339 213° Southwest 128 147 2,700 840 Climbing Indianapolis Center
07:29PM 40.0419 -83.1489 223° Southwest 110 127 3,100 780 Climbing Indianapolis Center
07:29PM 40.0314 -83.1614 222° Southwest 120 138 3,500 720 Climbing Indianapolis Center
07:30PM 40.0172 -83.1775 221° Southwest 115 132 3,900 240 Climbing Indianapolis Center
07:31PM 39.9769 -83.2203 219° Southwest 153 176 4,000  Climbing Indianapolis Center
07:32PM 39.9450 -83.2572 222° Southwest 157 181 4,000  Level Indianapolis Center
07:33PM 39.9222 -83.2839 222° Southwest 143 165 4,000  Level Indianapolis Center
07:34PM 39.8911 -83.3183 220° Southwest 146 168 4,000  Level Indianapolis Center
07:35PM 39.8597 -83.3533 221° Southwest 146 168 4,000  Level Indianapolis Center
07:35PM 39.8517 -83.3628 222° Southwest 147 169 4,000  Level Indianapolis Center
07:36PM 39.8283 -83.3878 219° Southwest 146 168 4,000  Level Indianapolis Center
07:37PM 39.7967 -83.4239 221° Southwest 146 168 4,000  Level Indianapolis Center
07:38PM 39.7631 -83.4608 220° Southwest 151 174 4,000  Level Indianapolis Center
07:39PM 39.7333 -83.4953 222° Southwest 145 167 4,000  Level Indianapolis Center
07:40PM 39.7014 -83.5319 221° Southwest 146 168 4,000  Level Indianapolis Center
07:41PM 39.6675 -83.5631 215° Southwest 155 178 4,000  Level Indianapolis Center
07:42PM 39.6375 -83.5992 223° Southwest 148 170 4,000  Level Indianapolis Center
07:43PM 39.6064 -83.6336 220° Southwest 147 169 4,000  Level Indianapolis Center
07:44PM 39.5717 -83.6731 221° Southwest 147 169 4,000  Level Indianapolis Center
07:45PM 39.5397 -83.7069 219° Southwest 149 171 4,000  Level Indianapolis Center
07:46PM 39.5064 -83.7433 220° Southwest 148 170 4,000 -60 Level Indianapolis Center
07:47PM 39.4742 -83.7789 220° Southwest 150 173 3,900 -60 Descending Indianapolis Center
07:48PM 39.4436 -83.8144 222° Southwest 149 171 3,900 -120 Level Indianapolis Center
07:49PM 39.4139 -83.8514 224° Southwest 147 169 3,700 -360 Descending Indianapolis Center
07:50PM 39.3806 -83.8911 223° Southwest 154 177 3,200 -420 Descending Indianapolis Center
07:51PM 39.3472 -83.9306 222° Southwest 159 183 2,900 -180 Descending Indianapolis Center
07:52PM 39.3164 -83.9658 222° Southwest 153 176 2,900  Level Indianapolis Center
07:53PM 39.2872 -84.0014 223° Southwest 147 169 2,900  Level Indianapolis Center
07:54PM 39.2578 -84.0356 222° Southwest 144 166 2,900 -120 Level Indianapolis Center
07:55PM 39.2272 -84.0711 222° Southwest 144 166 2,700 -300 Descending Indianapolis Center
07:56PM 39.1944 -84.0994 214° Southwest 143 165 2,400 -180 Descending Indianapolis Center
07:57PM 39.1664 -84.1256 216° Southwest 118 136 2,400  Level Indianapolis Center
07:58PM 39.1478 -84.1464 221° Southwest 98 113 2,400 -180 Level Indianapolis Center
07:59PM 39.1272 -84.1664 217° Southwest 96 110 2,100 -300 Descending Indianapolis Center